Time;durP1;ratioP1;P1;durP2;ratioP2;P2;SDS_P1;SDS_P2;PMS_P1;PMS_P2;Temp;Humidity;BMP_temperature;BMP_pressure;BME280_temperature;BME280_humidity;BME280_pressure;Samples;Min_cycle;Max_cycle;Signal;HPM_P1;HPM_P2
2023/04/30 00:00:32;;;;;;;20.55;12.02;;;;;;;16.40;92.80;100736.31;4998879;28;20046;-82
2023/04/30 00:03:00;;;;;;;21.15;13.05;;;;;;;16.39;92.42;100735.50;4998567;28;20046;-82
2023/04/30 00:05:28;;;;;;;21.60;12.65;;;;;;;16.33;93.12;100716.63;4980745;28;20050;-82
2023/04/30 00:07:56;;;;;;;23.55;13.88;;;;;;;16.26;93.45;100733.63;4998464;28;20050;-82
2023/04/30 00:10:24;;;;;;;21.27;13.27;;;;;;;16.18;93.16;100726.13;4997280;28;20046;-82
2023/04/30 00:12:52;;;;;;;23.50;14.68;;;;;;;16.13;94.26;100729.81;4998519;28;20045;-82
2023/04/30 00:15:19;;;;;;;24.35;13.45;;;;;;;16.10;94.30;100725.75;4998498;28;20424;-82
2023/04/30 00:17:47;;;;;;;21.70;13.57;;;;;;;16.08;94.36;100728.00;4998274;28;20062;-82
2023/04/30 00:20:16;;;;;;;18.45;13.65;;;;;;;16.06;95.54;100729.44;4998354;28;20057;-82
2023/04/30 00:22:44;;;;;;;21.42;13.20;;;;;;;16.08;95.59;100741.78;4998473;28;20117;-82
2023/04/30 00:25:11;;;;;;;21.95;13.02;;;;;;;15.98;95.60;100747.56;4998335;28;20046;-82
2023/04/30 00:27:39;;;;;;;20.70;13.25;;;;;;;15.96;95.74;100739.63;4994939;28;20042;-82
2023/04/30 00:30:08;;;;;;;22.73;13.38;;;;;;;15.92;96.07;100734.97;4995322;28;20531;-82
2023/04/30 00:32:36;;;;;;;20.40;13.05;;;;;;;15.88;96.42;100734.00;4977854;28;20050;-82
2023/04/30 00:35:04;;;;;;;20.73;13.68;;;;;;;15.82;97.31;100731.34;4995218;28;20735;-82
2023/04/30 00:37:32;;;;;;;22.17;12.73;;;;;;;15.81;97.84;100737.16;4977630;28;20042;-83
2023/04/30 00:40:00;;;;;;;21.58;13.50;;;;;;;15.81;97.48;100739.94;4995015;28;20049;-82
2023/04/30 00:42:29;;;;;;;23.60;12.65;;;;;;;15.73;96.68;100727.69;4977867;28;20504;-82
2023/04/30 00:44:57;;;;;;;20.48;12.77;;;;;;;15.71;96.80;100729.94;4977716;28;20046;-82
2023/04/30 00:47:25;;;;;;;20.45;13.23;;;;;;;15.77;96.87;100720.44;4994990;28;20050;-82
2023/04/30 00:49:53;;;;;;;21.20;13.30;;;;;;;15.73;95.74;100724.94;4995066;28;20042;-82
2023/04/30 00:52:22;;;;;;;20.23;14.38;;;;;;;15.63;96.34;100717.72;4994887;28;20047;-82
2023/04/30 00:54:52;;;;;;;21.63;12.80;;;;;;;15.66;96.20;100716.28;4994813;28;20051;-82
2023/04/30 00:57:21;;;;;;;17.95;12.98;;;;;;;15.55;97.17;100705.47;4977333;28;20473;-82
2023/04/30 00:59:50;;;;;;;21.27;13.20;;;;;;;15.50;97.50;100702.81;4994742;28;20054;-82
2023/04/30 01:02:19;;;;;;;21.20;12.55;;;;;;;15.42;98.01;100698.06;4994697;28;20054;-83
2023/04/30 01:04:47;;;;;;;20.98;13.18;;;;;;;15.39;98.18;100701.44;4994893;28;20042;-83
2023/04/30 01:07:15;;;;;;;19.33;12.82;;;;;;;15.25;98.85;100682.97;4994456;28;20046;-83
2023/04/30 01:09:43;;;;;;;22.00;13.80;;;;;;;15.28;98.81;100685.13;4994481;28;20480;-83
2023/04/30 01:12:25;;;;;;;20.40;12.73;;;;;;;15.30;97.53;100690.34;4994403;28;20046;-83
2023/04/30 01:15:07;;;;;;;18.52;12.85;;;;;;;15.34;98.08;100688.56;4994373;28;20053;-83
2023/04/30 01:17:58;;;;;;;20.63;13.02;;;;;;;15.39;97.41;100690.41;4994121;28;20042;-83
2023/04/30 01:20:28;;;;;;;23.40;13.88;;;;;;;15.50;96.10;100685.47;4976884;28;20393;-83
2023/04/30 01:23:12;;;;;;;21.50;13.40;;;;;;;15.47;96.94;100697.13;4994118;28;20046;-83
2023/04/30 01:25:59;;;;;;;21.13;13.40;;;;;;;15.26;98.11;100694.81;4994235;28;20042;-83
2023/04/30 01:28:27;;;;;;;20.63;13.57;;;;;;;15.25;98.73;100702.25;4992843;28;20050;-83
2023/04/30 01:30:57;;;;;;;24.65;14.88;;;;;;;15.25;97.92;100706.97;4976704;28;20066;-83
2023/04/30 01:33:26;;;;;;;19.38;13.10;;;;;;;15.05;98.30;100695.25;4976933;28;20046;-83
2023/04/30 01:36:00;;;;;;;20.52;14.43;;;;;;;15.03;99.29;100706.59;4994007;28;20057;-83
2023/04/30 01:38:40;;;;;;;22.05;14.80;;;;;;;14.95;99.15;100709.25;4992793;28;20411;-83
2023/04/30 01:41:36;;;;;;;22.33;14.45;;;;;;;14.87;98.98;100702.50;4993931;28;20053;-83
2023/04/30 01:44:15;;;;;;;20.50;13.45;;;;;;;14.88;99.14;100695.88;4992638;28;20046;-83
2023/04/30 01:47:08;;;;;;;23.20;15.02;;;;;;;14.83;97.47;100701.47;4993834;28;20069;-83
2023/04/30 01:50:02;;;;;;;22.08;14.05;;;;;;;14.81;98.35;100698.22;4947443;28;20058;-83
2023/04/30 01:52:37;;;;;;;22.02;15.18;;;;;;;14.51;99.01;100696.53;4993813;28;20065;-83
2023/04/30 01:55:11;;;;;;;20.52;14.80;;;;;;;14.60;99.01;100696.66;4991583;28;20054;-83
2023/04/30 01:57:48;;;;;;;;;;;;;;;14.69;98.64;100709.69;4976621;28;20042;-83
2023/04/30 02:00:16;;;;;;;23.67;14.40;;;;;;;14.68;99.23;100711.66;4993678;28;19922;-83
2023/04/30 02:02:44;;;;;;;24.25;14.57;;;;;;;14.68;99.61;100700.63;4976129;28;20038;-83
2023/04/30 02:05:12;;;;;;;20.73;13.88;;;;;;;14.74;100.00;100704.97;4992307;28;20397;-83
2023/04/30 02:07:45;;;;;;;22.75;14.63;;;;;;;14.81;99.86;100706.50;4993350;28;20042;-83
2023/04/30 02:10:13;;;;;;;21.92;14.30;;;;;;;14.76;98.93;100704.66;4993550;28;20156;-83
2023/04/30 02:12:41;;;;;;;21.88;13.95;;;;;;;14.82;98.24;100700.69;4976088;28;20058;-83
2023/04/30 02:15:10;;;;;;;25.48;14.90;;;;;;;14.77;98.91;100693.31;4993267;28;20366;-83
2023/04/30 02:17:40;;;;;;;28.65;15.18;;;;;;;14.62;98.48;100693.59;4975864;28;20390;-83
2023/04/30 02:20:09;;;;;;;19.88;13.65;;;;;;;14.75;98.43;100686.47;4976069;28;20046;-83
2023/04/30 02:22:36;;;;;;;22.90;14.57;;;;;;;14.76;97.14;100704.66;4993032;28;20066;-83
2023/04/30 02:25:05;;;;;;;22.95;14.68;;;;;;;14.63;98.33;100703.50;4975974;28;20513;-83
2023/04/30 02:27:33;;;;;;;20.90;13.77;;;;;;;14.75;97.86;100690.06;4993066;28;20520;-83
2023/04/30 02:30:02;;;;;;;23.40;14.55;;;;;;;14.84;97.54;100692.09;4993109;28;20050;-83
2023/04/30 02:32:30;;;;;;;24.90;14.82;;;;;;;14.80;97.92;100696.59;4993002;28;20070;-83
2023/04/30 02:34:58;;;;;;;26.38;14.90;;;;;;;14.77;98.90;100703.53;4975495;28;20042;-83
2023/04/30 02:37:26;;;;;;;20.92;14.02;;;;;;;14.75;98.24;100698.31;4992834;28;20379;-83
2023/04/30 02:39:54;;;;;;;20.75;12.90;;;;;;;14.71;98.52;100694.50;4975484;28;20046;-83
2023/04/30 02:42:22;;;;;;;23.10;14.95;;;;;;;14.69;99.49;100698.69;4992977;28;20042;-83
2023/04/30 02:44:50;;;;;;;24.17;14.45;;;;;;;14.74;97.85;100687.56;4992828;28;20389;-83
2023/04/30 02:47:18;;;;;;;22.23;13.05;;;;;;;14.48;98.26;100685.31;4992766;28;20083;-83
2023/04/30 02:49:46;;;;;;;21.30;12.82;;;;;;;14.43;98.93;100689.00;4992353;28;20054;-83
2023/04/30 02:52:14;;;;;;;24.48;14.13;;;;;;;14.37;99.00;100670.91;4975335;28;20050;-83
2023/04/30 02:54:42;;;;;;;22.70;14.15;;;;;;;14.34;99.82;100682.53;4975308;28;20496;-83
2023/04/30 02:57:10;;;;;;;20.75;13.85;;;;;;;14.33;98.57;100672.66;4992523;28;20047;-83
2023/04/30 02:59:39;;;;;;;21.48;14.20;;;;;;;14.33;98.38;100686.41;4975321;28;20485;-83
2023/04/30 03:02:07;;;;;;;24.80;14.38;;;;;;;14.26;99.40;100678.53;4975403;28;20065;-83
2023/04/30 03:04:35;;;;;;;19.33;13.15;;;;;;;14.27;98.76;100660.91;4958945;28;20408;-83
2023/04/30 03:07:05;;;;;;;24.15;14.43;;;;;;;14.24;98.58;100667.81;4991377;28;20489;-83
2023/04/30 03:09:35;;;;;;;22.00;13.55;;;;;;;14.15;98.70;100666.91;4992410;28;20053;-83
2023/04/30 03:12:03;;;;;;;23.35;14.25;;;;;;;14.04;99.72;100670.94;4975158;28;20055;-83
2023/04/30 03:14:31;;;;;;;29.17;15.57;;;;;;;14.00;99.19;100658.91;4992473;28;20050;-83
2023/04/30 03:16:59;;;;;;;25.88;15.30;;;;;;;14.02;99.40;100667.69;4975175;28;20043;-83
2023/04/30 03:19:28;;;;;;;24.85;15.23;;;;;;;14.06;99.26;100669.53;4992309;28;20046;-83
2023/04/30 03:21:55;;;;;;;20.75;14.20;;;;;;;14.11;98.99;100671.38;4961493;28;20047;-83
2023/04/30 03:24:24;;;;;;;26.05;15.10;;;;;;;14.06;99.48;100668.69;4953721;29;20495;-83
2023/04/30 03:26:52;;;;;;;25.45;15.02;;;;;;;14.00;99.84;100675.41;4952568;28;20040;-83
2023/04/30 03:29:20;;;;;;;25.45;15.35;;;;;;;13.96;100.00;100669.69;4952510;28;20078;-82
2023/04/30 03:31:47;;;;;;;25.85;15.85;;;;;;;13.89;100.00;100670.06;4953821;29;20047;-83
2023/04/30 03:34:15;;;;;;;25.50;15.35;;;;;;;13.87;100.00;100677.81;4953680;29;20397;-83
2023/04/30 03:36:43;;;;;;;22.42;14.13;;;;;;;13.90;100.00;100671.72;4953730;29;20051;-83
2023/04/30 03:39:11;;;;;;;26.00;16.38;;;;;;;13.98;100.00;100675.69;4953371;29;20059;-83
2023/04/30 03:41:39;;;;;;;24.25;15.88;;;;;;;13.76;100.00;100677.16;4953601;29;20055;-83
2023/04/30 03:44:14;;;;;;;25.40;16.15;;;;;;;14.02;99.95;100679.50;4953437;29;20055;-83
2023/04/30 03:46:42;;;;;;;;;;;;;;;13.98;99.97;100682.03;4952722;29;20164;-83
2023/04/30 03:49:10;;;;;;;27.13;16.30;;;;;;;13.93;100.00;100676.63;4953474;29;19933;-83
2023/04/30 03:51:40;;;;;;;24.50;15.43;;;;;;;13.92;100.00;100666.72;4952342;29;20047;-83
2023/04/30 03:54:09;;;;;;;21.77;15.75;;;;;;;13.94;99.93;100672.75;4953406;29;20047;-83
2023/04/30 03:56:37;;;;;;;25.23;15.88;;;;;;;13.95;100.00;100674.41;4952187;28;20063;-83
2023/04/30 03:59:05;;;;;;;23.65;15.55;;;;;;;13.88;100.00;100673.13;4952118;29;20066;-83
2023/04/30 04:01:33;;;;;;;22.08;14.48;;;;;;;13.96;99.97;100673.28;4968788;28;20483;-83
2023/04/30 04:04:02;;;;;;;23.48;14.63;;;;;;;13.91;100.00;100684.34;4955847;29;20047;-83
2023/04/30 04:06:31;;;;;;;24.10;15.43;;;;;;;13.93;100.00;100676.63;4971773;28;20040;-83
2023/04/30 04:08:59;;;;;;;24.02;14.15;;;;;;;13.91;100.00;100686.28;4955657;28;20059;-81
2023/04/30 04:11:27;;;;;;;23.67;15.60;;;;;;;13.93;100.00;100675.81;4955697;28;20155;-81
2023/04/30 04:13:56;;;;;;;20.55;14.07;;;;;;;13.91;100.00;100676.09;4956653;29;20505;-81
2023/04/30 04:16:24;;;;;;;21.60;14.07;;;;;;;13.93;100.00;100675.81;4956758;29;20043;-81
2023/04/30 04:18:53;;;;;;;23.98;14.93;;;;;;;13.93;100.00;100675.81;4955392;28;20183;-81
2023/04/30 04:21:21;;;;;;;21.50;14.50;;;;;;;13.97;99.95;100683.16;4955384;28;20398;-81
2023/04/30 04:23:49;;;;;;;22.15;15.63;;;;;;;14.01;99.77;100682.53;4956539;29;20048;-81
2023/04/30 04:26:20;;;;;;;20.58;14.90;;;;;;;14.08;98.95;100683.00;4956592;29;20051;-82
2023/04/30 04:28:48;;;;;;;24.05;14.73;;;;;;;14.11;98.74;100693.38;4955280;29;20058;-82
2023/04/30 04:31:16;;;;;;;21.88;13.68;;;;;;;14.11;99.75;100690.63;4939272;29;20054;-82
2023/04/30 04:33:45;;;;;;;26.15;15.07;;;;;;;14.16;98.90;100701.56;4955281;28;20403;-82
2023/04/30 04:36:13;;;;;;;25.75;15.90;;;;;;;14.26;100.00;100708.03;4939363;29;20043;-82
2023/04/30 04:38:41;;;;;;;28.73;15.95;;;;;;;14.38;100.00;100709.16;4956290;29;20043;-82
2023/04/30 04:41:09;;;;;;;25.23;16.38;;;;;;;14.60;100.00;100715.09;4954554;29;20494;-82
2023/04/30 04:43:37;;;;;;;24.83;15.90;;;;;;;14.65;100.00;100712.25;4955035;28;20051;-82
2023/04/30 04:46:08;;;;;;;28.10;16.90;;;;;;;14.72;100.00;100715.41;4955020;28;20486;-82
2023/04/30 04:48:38;;;;;;;25.58;16.45;;;;;;;14.83;100.00;100720.75;4955046;29;20398;-82
2023/04/30 04:51:06;;;;;;;25.02;14.80;;;;;;;15.01;97.41;100719.03;4954860;28;20059;-82
2023/04/30 04:53:34;;;;;;;26.27;15.50;;;;;;;15.10;96.21;100724.66;4954841;28;20051;-82
2023/04/30 04:56:02;;;;;;;28.08;15.30;;;;;;;15.09;95.32;100732.09;4956089;29;20066;-82
2023/04/30 04:58:30;;;;;;;24.48;14.68;;;;;;;15.08;94.25;100729.63;4954732;28;20050;-82
2023/04/30 05:00:58;;;;;;;20.20;14.52;;;;;;;15.03;94.13;100733.31;4954839;28;20055;-82
2023/04/30 05:03:28;;;;;;;25.45;15.07;;;;;;;14.93;94.82;100728.84;4955899;29;20055;-82
2023/04/30 05:05:56;;;;;;;21.85;14.13;;;;;;;14.99;93.61;100729.53;4954730;28;20050;-82
2023/04/30 05:08:24;;;;;;;20.27;13.68;;;;;;;15.03;93.18;100744.34;4954669;28;20040;-81
2023/04/30 05:10:52;;;;;;;19.20;14.23;;;;;;;14.95;94.67;100736.81;4954618;28;20062;-79
2023/04/30 05:13:20;;;;;;;24.75;14.10;;;;;;;14.94;93.25;100741.50;4955335;28;20058;-78
2023/04/30 05:15:51;;;;;;;26.35;14.73;;;;;;;14.91;93.70;100736.59;4955665;29;20051;-82
2023/04/30 05:18:19;;;;;;;24.35;14.80;;;;;;;15.13;93.85;100743.31;4955591;29;20070;-82
2023/04/30 05:20:47;;;;;;;24.58;13.55;;;;;;;15.23;92.57;100734.84;4957447;28;20043;-82
2023/04/30 05:23:15;;;;;;;21.05;13.40;;;;;;;15.36;91.58;100740.66;4994215;28;20050;-81
2023/04/30 05:25:44;;;;;;;19.27;13.73;;;;;;;15.45;90.62;100755.34;4994251;28;20050;-81
2023/04/30 05:28:12;;;;;;;22.00;13.55;;;;;;;15.57;90.20;100747.38;4992866;28;20046;-81
2023/04/30 05:30:40;;;;;;;21.65;14.32;;;;;;;15.71;89.33;100750.09;4976585;28;20047;-81
2023/04/30 05:33:07;;;;;;;23.52;14.45;;;;;;;15.63;91.58;100755.53;4976855;28;20050;-81
2023/04/30 05:35:36;;;;;;;23.63;13.95;;;;;;;15.53;90.96;100746.34;4993975;28;20165;-81
2023/04/30 05:38:04;;;;;;;27.60;15.25;;;;;;;15.67;91.38;100756.53;4992695;28;20043;-81
2023/04/30 05:40:31;;;;;;;19.30;13.50;;;;;;;15.65;90.80;100753.25;4993943;28;20405;-82
2023/04/30 05:42:59;;;;;;;24.38;13.95;;;;;;;15.65;90.46;100754.06;4976767;28;20536;-82
2023/04/30 05:45:27;;;;;;;25.30;15.07;;;;;;;15.59;91.24;100753.38;4993777;28;20397;-82
2023/04/30 05:47:55;;;;;;;21.10;14.05;;;;;;;15.59;91.53;100745.09;4994086;28;20069;-82
2023/04/30 05:50:23;;;;;;;24.80;13.80;;;;;;;15.65;91.97;100758.78;4993612;28;20508;-81
2023/04/30 05:52:51;;;;;;;24.20;14.23;;;;;;;15.69;91.84;100755.09;4993681;28;20038;-82
2023/04/30 05:55:19;;;;;;;25.90;14.82;;;;;;;15.81;92.80;100756.47;4993552;28;20057;-81
2023/04/30 05:57:47;;;;;;;28.30;14.57;;;;;;;15.73;92.23;100755.28;4993502;28;20486;-82
2023/04/30 06:00:15;;;;;;;23.55;15.57;;;;;;;15.84;92.13;100762.19;4993559;28;20054;-82
2023/04/30 06:02:43;;;;;;;26.50;15.48;;;;;;;15.94;92.13;100766.69;4993108;28;20057;-82
2023/04/30 06:05:11;;;;;;;29.02;15.23;;;;;;;16.14;92.59;100763.75;4992226;28;20045;-81
2023/04/30 06:07:43;;;;;;;23.58;14.20;;;;;;;16.24;90.02;100764.31;4992918;28;20046;-82
2023/04/30 06:10:11;;;;;;;24.75;14.57;;;;;;;16.31;88.33;100766.66;4992823;28;20058;-82
2023/04/30 06:12:40;;;;;;;22.52;14.70;;;;;;;16.50;87.97;100765.63;4992894;28;20520;-82
2023/04/30 06:15:08;;;;;;;22.33;13.93;;;;;;;16.56;87.08;100767.13;4992604;28;20508;-82
2023/04/30 06:17:36;;;;;;;24.45;14.90;;;;;;;16.68;85.66;100768.50;4992146;28;20039;-82
2023/04/30 06:20:05;;;;;;;25.75;15.32;;;;;;;16.68;86.74;100757.44;4992198;28;20050;-82
2023/04/30 06:22:33;;;;;;;21.75;14.50;;;;;;;16.91;84.74;100774.75;4963812;28;20039;-82
2023/04/30 06:25:02;;;;;;;22.13;13.23;;;;;;;16.97;83.19;100783.75;4955106;28;20043;-82
2023/04/30 06:27:31;;;;;;;23.27;14.52;;;;;;;17.02;84.08;100783.59;4957518;28;20051;-82
2023/04/30 06:30:00;;;;;;;22.95;13.98;;;;;;;16.99;83.79;100787.00;4957045;28;20047;-82
2023/04/30 06:32:29;;;;;;;22.92;14.13;;;;;;;17.05;84.02;100777.47;4961637;28;20062;-82
2023/04/30 06:34:57;;;;;;;20.80;13.82;;;;;;;16.95;85.29;100777.72;4953826;28;20047;-82
2023/04/30 06:37:25;;;;;;;24.20;13.88;;;;;;;17.25;84.41;100783.56;4964658;28;20046;-82
2023/04/30 06:39:53;;;;;;;21.60;13.30;;;;;;;17.37;83.34;100769.09;4962860;28;20047;-82
2023/04/30 06:42:21;;;;;;;16.35;11.95;;;;;;;17.45;83.65;100774.66;4958411;28;20049;-83
2023/04/30 06:44:50;;;;;;;23.67;12.88;;;;;;;17.56;80.89;100785.44;4954979;28;20521;-83
2023/04/30 06:47:18;;;;;;;18.98;12.40;;;;;;;17.68;82.05;100782.00;4954938;28;20050;-81
2023/04/30 06:49:46;;;;;;;19.52;12.35;;;;;;;17.76;80.51;100783.16;4973098;28;20501;-82
2023/04/30 06:52:13;;;;;;;18.35;11.38;;;;;;;17.66;80.97;100779.59;4960025;28;20043;-83
2023/04/30 06:54:42;;;;;;;17.98;12.13;;;;;;;17.84;81.64;100790.69;4971543;28;20481;-82
2023/04/30 06:57:11;;;;;;;18.98;11.57;;;;;;;18.01;83.16;100781.56;4968162;28;20157;-83
2023/04/30 06:59:39;;;;;;;18.65;11.93;;;;;;;18.16;80.02;100787.75;4971163;28;20164;-83
2023/04/30 07:02:07;;;;;;;21.15;11.98;;;;;;;18.27;79.99;100786.28;4971410;28;20057;-82
2023/04/30 07:04:35;;;;;;;16.08;11.18;;;;;;;18.40;78.47;100798.34;4961346;28;20479;-83
2023/04/30 07:07:03;;;;;;;17.27;11.55;;;;;;;18.50;76.50;100786.91;4953379;28;20410;-83
2023/04/30 07:09:31;;;;;;;17.88;10.60;;;;;;;18.44;78.84;100801.25;4953873;28;20455;-83
2023/04/30 07:11:59;;;;;;;15.27;10.43;;;;;;;18.31;79.89;100801.13;4956699;28;20142;-82
2023/04/30 07:14:27;;;;;;;16.30;10.38;;;;;;;18.24;79.87;100796.06;4971477;28;20058;-83
2023/04/30 07:16:55;;;;;;;19.63;11.98;;;;;;;18.31;80.49;100797.53;4971372;28;20042;-83
2023/04/30 07:19:25;;;;;;;18.83;11.82;;;;;;;18.38;80.56;100795.88;4971038;28;20074;-84
2023/04/30 07:21:53;;;;;;;16.17;10.50;;;;;;;18.03;81.84;100787.56;4990959;28;20373;-83
2023/04/30 07:24:21;;;;;;;16.55;9.30;;;;;;;18.51;79.20;100798.81;4993555;28;20061;-83
2023/04/30 07:26:49;;;;;;;13.27;9.48;;;;;;;18.73;78.22;100795.00;4992581;28;20049;-81
2023/04/30 07:29:18;;;;;;;17.25;9.73;;;;;;;18.84;78.39;100794.66;5011936;28;20053;-78
2023/04/30 07:31:46;;;;;;;19.98;10.63;;;;;;;18.79;76.90;100796.47;5011464;28;20064;-77
2023/04/30 07:34:14;;;;;;;16.92;9.70;;;;;;;18.90;77.04;100801.63;4994237;28;20049;-78
2023/04/30 07:36:42;;;;;;;20.33;11.43;;;;;;;19.01;76.88;100799.34;5014306;28;20052;-78
2023/04/30 07:39:10;;;;;;;21.58;10.73;;;;;;;19.11;75.82;100798.19;5005526;28;20049;-78
2023/04/30 07:41:38;;;;;;;16.17;10.52;;;;;;;19.26;75.95;100799.56;4998377;28;20055;-77
2023/04/30 07:44:06;;;;;;;17.33;10.40;;;;;;;19.30;76.58;100806.88;4983398;28;20497;-77
2023/04/30 07:46:35;;;;;;;14.85;9.23;;;;;;;19.38;76.23;100804.38;4995995;28;20038;-77
2023/04/30 07:49:03;;;;;;;14.43;9.32;;;;;;;19.29;74.97;100810.81;4977771;28;20042;-78
2023/04/30 07:51:31;;;;;;;14.40;10.10;;;;;;;19.36;74.11;100804.75;5001916;28;20054;-77
2023/04/30 07:53:59;;;;;;;12.07;7.78;;;;;;;19.67;72.08;100797.19;4993062;28;20041;-77
2023/04/30 07:56:27;;;;;;;11.88;7.90;;;;;;;19.57;72.83;100813.13;5001045;28;20445;-77
2023/04/30 07:58:55;;;;;;;13.02;7.95;;;;;;;19.52;72.79;100796.66;4995643;28;20042;-77
2023/04/30 08:01:23;;;;;;;15.20;8.25;;;;;;;19.55;73.51;100790.41;4995757;28;20049;-77
2023/04/30 08:03:51;;;;;;;13.68;7.95;;;;;;;19.48;73.47;100798.47;5006220;28;20054;-77
2023/04/30 08:06:19;;;;;;;14.38;8.13;;;;;;;19.56;72.44;100799.56;5009176;28;20050;-77
2023/04/30 08:08:47;;;;;;;10.82;8.40;;;;;;;19.41;73.56;100796.22;5012194;28;20041;-77
2023/04/30 08:11:17;;;;;;;14.68;7.85;;;;;;;19.44;73.28;100800.28;4989136;28;20053;-77
2023/04/30 08:13:46;;;;;;;9.18;7.40;;;;;;;19.59;73.63;100796.94;5014140;28;20068;-77
2023/04/30 08:16:14;;;;;;;13.38;7.53;;;;;;;19.71;72.66;100795.38;4998323;28;20058;-77
2023/04/30 08:18:45;;;;;;;10.20;7.60;;;;;;;19.84;71.69;100796.28;4996422;28;20046;-77
2023/04/30 08:21:13;;;;;;;10.43;6.72;;;;;;;19.65;71.48;100802.28;5006480;28;20058;-77
2023/04/30 08:23:42;;;;;;;13.63;7.15;;;;;;;19.73;71.72;100807.78;5008317;28;20049;-77
2023/04/30 08:26:11;;;;;;;13.27;7.75;;;;;;;19.88;71.10;100811.09;4996108;28;20053;-77
2023/04/30 08:28:41;;;;;;;10.10;7.68;;;;;;;19.77;71.95;100805.13;4995011;28;20559;-77
2023/04/30 08:31:11;;;;;;;16.42;7.88;;;;;;;20.05;70.69;100804.63;4977520;28;20512;-77
2023/04/30 08:33:40;;;;;;;10.77;7.32;;;;;;;19.90;70.59;100806.03;4995429;28;20042;-77
2023/04/30 08:36:08;;;;;;;10.98;7.35;;;;;;;20.05;68.61;100821.31;5009031;28;20385;-77
2023/04/30 08:38:39;;;;;;;10.23;7.45;;;;;;;19.86;69.68;100811.44;5008776;28;20057;-77
2023/04/30 08:41:13;;;;;;;8.88;7.05;;;;;;;20.08;68.13;100809.50;4994805;28;20054;-77
2023/04/30 08:43:45;;;;;;;10.50;7.03;;;;;;;20.29;68.63;100817.03;4995510;28;20038;-77
2023/04/30 08:46:17;;;;;;;11.00;6.78;;;;;;;20.42;67.62;100806.75;4994811;28;20433;-77
2023/04/30 08:48:49;;;;;;;12.73;7.53;;;;;;;20.46;67.68;100810.47;5008160;28;20522;-77
2023/04/30 08:51:17;;;;;;;8.93;6.53;;;;;;;20.74;67.05;100804.31;5006459;28;20042;-77
2023/04/30 08:53:47;;;;;;;11.60;7.60;;;;;;;20.60;67.52;100807.41;5001872;28;20042;-77
2023/04/30 08:56:14;;;;;;;12.88;7.60;;;;;;;20.68;66.16;100811.25;4994814;28;20049;-77
2023/04/30 08:58:43;;;;;;;10.80;7.00;;;;;;;20.50;67.61;100810.59;5006712;28;20073;-77
2023/04/30 09:01:11;;;;;;;10.32;6.97;;;;;;;20.58;67.30;100806.91;4994926;28;20130;-77
2023/04/30 09:03:39;;;;;;;9.77;6.60;;;;;;;20.63;67.09;100828.13;4994390;28;20043;-77
2023/04/30 09:06:07;;;;;;;11.68;7.85;;;;;;;20.14;68.62;100808.13;4994318;28;20049;-77
2023/04/30 09:08:43;;;;;;;13.23;7.63;;;;;;;20.40;69.25;100826.53;5011929;28;20485;-77
2023/04/30 09:11:30;;;;;;;10.75;7.00;;;;;;;20.50;68.74;100822.53;5013228;28;20042;-76
2023/04/30 09:14:00;;;;;;;10.40;6.50;;;;;;;20.38;67.94;100820.53;5009750;28;20046;-77
2023/04/30 09:16:44;;;;;;;6.03;4.72;;;;;;;20.54;65.55;100811.53;4992240;28;20417;-77
2023/04/30 09:19:26;;;;;;;5.05;4.20;;;;;;;20.60;63.15;100810.19;5005119;28;20052;-76
2023/04/30 09:21:54;;;;;;;4.15;3.58;;;;;;;20.66;64.32;100825.47;4999246;28;20050;-76
2023/04/30 09:24:23;;;;;;;4.72;3.30;;;;;;;20.91;62.78;100808.88;4994167;28;20046;-77
2023/04/30 09:26:51;;;;;;;4.75;3.25;;;;;;;21.06;62.03;100815.72;4994444;28;20046;-77
2023/04/30 09:29:21;;;;;;;4.53;3.35;;;;;;;21.03;62.93;100818.41;4993415;28;20043;-77
2023/04/30 09:31:49;;;;;;;4.30;2.90;;;;;;;21.11;62.76;100823.03;5004550;28;20492;-77
2023/04/30 09:34:17;;;;;;;2.85;2.47;;;;;;;21.09;60.78;100814.22;5013729;28;20034;-77
2023/04/30 09:36:54;;;;;;;2.67;1.95;;;;;;;20.79;59.95;100817.16;5012064;28;20477;-77
2023/04/30 09:39:22;;;;;;;1.77;1.67;;;;;;;20.83;59.26;100815.34;5013065;28;20064;-77
2023/04/30 09:41:53;;;;;;;2.75;1.98;;;;;;;21.00;59.57;100824.63;5003251;28;20046;-76
2023/04/30 09:44:28;;;;;;;2.47;1.40;;;;;;;20.98;59.13;100805.53;5013527;28;20401;-76
2023/04/30 09:46:57;;;;;;;2.67;1.85;;;;;;;21.25;59.19;100816.34;5009346;28;20394;-77
2023/04/30 09:49:26;;;;;;;1.40;1.30;;;;;;;21.15;58.29;100812.84;5013063;28;20042;-76
2023/04/30 09:51:58;;;;;;;1.20;1.10;;;;;;;21.18;57.71;100814.13;5012552;28;20488;-77
2023/04/30 09:54:31;;;;;;;2.22;1.30;;;;;;;21.10;58.95;100801.94;5012368;28;20082;-77
2023/04/30 09:57:01;;;;;;;4.05;1.52;;;;;;;21.29;58.64;100811.69;4987690;28;20513;-77
2023/04/30 09:59:38;;;;;;;1.40;1.30;;;;;;;21.14;58.67;100810.41;4992072;28;20501;-77
2023/04/30 10:02:07;;;;;;;1.88;1.45;;;;;;;21.45;59.07;100817.34;4974176;28;20050;-77
2023/04/30 10:04:37;;;;;;;1.30;1.20;;;;;;;21.69;57.43;100810.13;5009130;28;20061;-77
2023/04/30 10:07:14;;;;;;;3.10;1.88;;;;;;;21.68;58.16;100817.69;5007175;28;20488;-77
2023/04/30 10:09:49;;;;;;;2.70;1.95;;;;;;;21.62;56.65;100811.53;5004354;28;20042;-77
2023/04/30 10:12:24;;;;;;;2.65;1.90;;;;;;;21.80;57.47;100793.78;5005331;28;20359;-76
2023/04/30 10:15:10;;;;;;;2.47;1.88;;;;;;;21.70;58.35;100784.75;5011737;28;20057;-76
2023/04/30 10:17:40;;;;;;;2.28;1.63;;;;;;;21.83;57.07;100798.66;5010799;28;20049;-76
2023/04/30 10:20:10;;;;;;;1.98;1.60;;;;;;;21.69;56.48;100791.47;5007895;28;20046;-76
2023/04/30 10:22:40;;;;;;;1.63;1.52;;;;;;;21.91;56.65;100780.19;5003474;28;20054;-77
2023/04/30 10:25:12;;;;;;;2.08;1.73;;;;;;;22.14;56.19;100781.25;5004382;28;20046;-76
2023/04/30 10:27:40;;;;;;;3.38;1.90;;;;;;;22.18;55.88;100783.34;4993299;28;20043;-76
2023/04/30 10:30:09;;;;;;;1.42;1.10;;;;;;;22.06;54.64;100786.97;5001812;28;20553;-77
2023/04/30 10:32:46;;;;;;;3.35;1.63;;;;;;;22.11;55.23;100773.63;4990820;28;20053;-76
2023/04/30 10:35:14;;;;;;;1.48;1.38;;;;;;;22.03;53.22;100780.13;4993706;28;20050;-76
2023/04/30 10:37:48;;;;;;;2.22;1.08;;;;;;;21.97;52.79;100782.38;4991872;28;20493;-77
2023/04/30 10:40:18;;;;;;;1.77;1.27;;;;;;;21.73;54.06;100778.50;4993197;28;20046;-76
2023/04/30 10:42:49;;;;;;;1.50;1.40;;;;;;;21.78;53.58;100760.72;4994852;28;20053;-77
2023/04/30 10:45:19;;;;;;;2.25;1.17;;;;;;;21.64;52.60;100766.63;4993254;28;20046;-76
2023/04/30 10:47:47;;;;;;;1.63;1.52;;;;;;;21.82;52.55;100761.63;4992940;28;20068;-76
2023/04/30 10:50:16;;;;;;;3.50;1.42;;;;;;;21.52;52.05;100756.34;4993677;28;20050;-76
2023/04/30 10:52:44;;;;;;;1.70;1.60;;;;;;;21.83;52.30;100768.84;4992107;28;20046;-77
2023/04/30 10:55:17;;;;;;;1.30;1.20;;;;;;;21.68;52.34;100753.63;4991923;28;20049;-77
2023/04/30 10:57:47;;;;;;;3.37;1.53;;;;;;;21.53;50.77;100757.97;5008238;28;20084;-77
2023/04/30 11:00:19;;;;;;;1.73;1.17;;;;;;;21.74;50.96;100751.44;5011830;28;20058;-77
2023/04/30 11:02:47;;;;;;;2.33;1.35;;;;;;;21.93;50.67;100750.81;5012003;28;20054;-77
2023/04/30 11:05:17;;;;;;;1.88;1.30;;;;;;;22.15;50.15;100751.41;5011942;28;20053;-77
2023/04/30 11:08:10;;;;;;;1.30;1.23;;;;;;;22.31;48.13;100757.03;5011945;28;20045;-77
2023/04/30 11:10:57;;;;;;;0.90;0.90;;;;;;;22.03;47.92;100749.47;5011740;28;20042;-76
2023/04/30 11:13:26;;;;;;;3.75;1.15;;;;;;;22.14;48.80;100736.66;5011996;28;20053;-77
2023/04/30 11:16:02;;;;;;;1.00;0.80;;;;;;;22.35;49.42;100743.19;5011597;28;20049;-77
2023/04/30 11:18:30;;;;;;;1.20;1.10;;;;;;;22.31;47.51;100747.84;5011941;28;20049;-77
2023/04/30 11:20:58;;;;;;;1.50;1.20;;;;;;;22.37;48.14;100726.91;5011926;28;20048;-77
2023/04/30 11:23:26;;;;;;;1.40;1.02;;;;;;;22.70;48.04;100742.53;4994756;28;20038;-77
2023/04/30 11:26:09;;;;;;;2.00;0.90;;;;;;;23.02;46.87;100736.13;5012380;28;20045;-78